Terminal Aerodrome Forecast
Issued by NWS Lake Charles, LA

Home | Current Version | Previous Version | Text Only | Print | Product List | Glossary On
Versions: 1 2 3 4 5 6 7 8 9 10 11 12 13 14 15 16 17
000
FTUS44 KLCH 301700
TAFLFT
TAF
KLFT 301739Z 3018/3118 22010KT 5SM SHRA SCT011 BKN019 OVC050
      TEMPO 3018/3022 VRB13G22KT 2SM TSRA FEW008 BKN035CB OVC050
     FM302200 19009KT P6SM SHRA FEW015 BKN025 OVC050
      TEMPO 3022/3102 VRB13G20KT 4SM -TSRA OVC015CB
     FM310200 18007KT P6SM -SHRA SCT018 OVC030
     FM310500 18005KT P6SM VCSH FEW012 OVC025
     FM310900 16002KT P6SM OVC015=

USA.gov is the U.S. government's official web portal to all federal, state and local government web resources and services.